sensor_id;sensor_type;location;lat;lon;timestamp;temperature;humidity
34829;DHT22;21042;47.620;12.188;2023-04-15T00:00:57;4.70;99.90
34829;DHT22;21042;47.620;12.188;2023-04-15T00:03:25;4.70;99.90
34829;DHT22;21042;47.620;12.188;2023-04-15T00:05:52;4.70;99.90
34829;DHT22;21042;47.620;12.188;2023-04-15T00:08:18;4.70;99.90
34829;DHT22;21042;47.620;12.188;2023-04-15T00:10:46;4.70;99.90
34829;DHT22;21042;47.620;12.188;2023-04-15T00:13:13;4.70;99.90
34829;DHT22;21042;47.620;12.188;2023-04-15T00:15:40;4.60;99.90
34829;DHT22;21042;47.620;12.188;2023-04-15T00:18:08;4.60;99.90
34829;DHT22;21042;47.620;12.188;2023-04-15T00:20:34;4.60;99.90
34829;DHT22;21042;47.620;12.188;2023-04-15T00:23:01;4.60;99.90
34829;DHT22;21042;47.620;12.188;2023-04-15T00:25:29;4.60;99.90
34829;DHT22;21042;47.620;12.188;2023-04-15T00:27:56;4.50;99.90
34829;DHT22;21042;47.620;12.188;2023-04-15T00:30:23;4.60;99.90
34829;DHT22;21042;47.620;12.188;2023-04-15T00:32:49;4.60;99.90
34829;DHT22;21042;47.620;12.188;2023-04-15T00:35:19;4.60;99.90
34829;DHT22;21042;47.620;12.188;2023-04-15T00:37:48;4.60;99.90
34829;DHT22;21042;47.620;12.188;2023-04-15T00:40:18;4.60;99.90
34829;DHT22;21042;47.620;12.188;2023-04-15T00:42:45;4.60;99.90
34829;DHT22;21042;47.620;12.188;2023-04-15T00:45:12;4.60;99.90
34829;DHT22;21042;47.620;12.188;2023-04-15T00:47:40;4.50;99.90
34829;DHT22;21042;47.620;12.188;2023-04-15T00:50:09;4.50;99.90
34829;DHT22;21042;47.620;12.188;2023-04-15T00:52:37;4.50;99.90
34829;DHT22;21042;47.620;12.188;2023-04-15T00:55:05;4.50;99.90
34829;DHT22;21042;47.620;12.188;2023-04-15T00:57:32;4.50;99.90
34829;DHT22;21042;47.620;12.188;2023-04-15T00:59:59;4.50;99.90
34829;DHT22;21042;47.620;12.188;2023-04-15T01:02:26;4.50;99.90
34829;DHT22;21042;47.620;12.188;2023-04-15T01:04:53;4.50;99.90
34829;DHT22;21042;47.620;12.188;2023-04-15T01:07:21;4.60;99.90
34829;DHT22;21042;47.620;12.188;2023-04-15T01:09:48;4.60;99.90
34829;DHT22;21042;47.620;12.188;2023-04-15T01:12:15;4.60;99.90
34829;DHT22;21042;47.620;12.188;2023-04-15T01:14:42;4.60;99.90
34829;DHT22;21042;47.620;12.188;2023-04-15T01:17:09;4.60;99.90
34829;DHT22;21042;47.620;12.188;2023-04-15T01:19:36;4.60;99.90
34829;DHT22;21042;47.620;12.188;2023-04-15T01:22:03;4.60;99.90
34829;DHT22;21042;47.620;12.188;2023-04-15T01:24:31;4.60;99.90
34829;DHT22;21042;47.620;12.188;2023-04-15T01:26:59;4.50;99.90
34829;DHT22;21042;47.620;12.188;2023-04-15T01:29:26;4.50;99.90
34829;DHT22;21042;47.620;12.188;2023-04-15T01:31:54;4.50;99.90
34829;DHT22;21042;47.620;12.188;2023-04-15T01:34:24;4.60;99.90
34829;DHT22;21042;47.620;12.188;2023-04-15T01:36:53;4.50;99.90
34829;DHT22;21042;47.620;12.188;2023-04-15T01:39:20;4.50;99.90
34829;DHT22;21042;47.620;12.188;2023-04-15T01:41:47;4.50;99.90
34829;DHT22;21042;47.620;12.188;2023-04-15T01:44:15;4.50;99.90
34829;DHT22;21042;47.620;12.188;2023-04-15T01:46:42;4.60;99.90
34829;DHT22;21042;47.620;12.188;2023-04-15T01:49:08;4.50;99.90
34829;DHT22;21042;47.620;12.188;2023-04-15T01:51:35;4.50;99.90
34829;DHT22;21042;47.620;12.188;2023-04-15T01:54:02;4.60;99.90
34829;DHT22;21042;47.620;12.188;2023-04-15T01:56:29;4.60;99.90
34829;DHT22;21042;47.620;12.188;2023-04-15T01:58:56;4.50;99.90
34829;DHT22;21042;47.620;12.188;2023-04-15T02:01:22;4.50;99.90
34829;DHT22;21042;47.620;12.188;2023-04-15T02:03:49;4.50;99.90
34829;DHT22;21042;47.620;12.188;2023-04-15T02:06:16;4.50;99.90
34829;DHT22;21042;47.620;12.188;2023-04-15T02:08:43;4.50;99.90
34829;DHT22;21042;47.620;12.188;2023-04-15T02:11:10;4.50;99.90
34829;DHT22;21042;47.620;12.188;2023-04-15T02:13:37;4.40;99.90
34829;DHT22;21042;47.620;12.188;2023-04-15T02:16:14;4.40;99.90
34829;DHT22;21042;47.620;12.188;2023-04-15T02:18:46;4.40;99.90
34829;DHT22;21042;47.620;12.188;2023-04-15T02:21:13;4.40;99.90
34829;DHT22;21042;47.620;12.188;2023-04-15T02:26:57;4.40;99.90
34829;DHT22;21042;47.620;12.188;2023-04-15T02:29:24;4.50;99.90
34829;DHT22;21042;47.620;12.188;2023-04-15T02:31:51;4.50;99.90
34829;DHT22;21042;47.620;12.188;2023-04-15T02:34:19;4.50;99.90
34829;DHT22;21042;47.620;12.188;2023-04-15T02:36:45;4.60;99.90
34829;DHT22;21042;47.620;12.188;2023-04-15T02:39:14;4.60;99.90
34829;DHT22;21042;47.620;12.188;2023-04-15T02:41:42;4.70;99.90
34829;DHT22;21042;47.620;12.188;2023-04-15T02:44:10;4.70;99.90
34829;DHT22;21042;47.620;12.188;2023-04-15T02:46:38;4.70;99.90
34829;DHT22;21042;47.620;12.188;2023-04-15T02:49:06;4.70;99.90
34829;DHT22;21042;47.620;12.188;2023-04-15T02:51:35;4.70;99.90
34829;DHT22;21042;47.620;12.188;2023-04-15T02:54:01;4.70;99.90
34829;DHT22;21042;47.620;12.188;2023-04-15T02:56:28;4.50;99.90
34829;DHT22;21042;47.620;12.188;2023-04-15T02:58:56;4.50;99.90
34829;DHT22;21042;47.620;12.188;2023-04-15T03:01:23;4.50;99.90
34829;DHT22;21042;47.620;12.188;2023-04-15T03:03:51;4.50;99.90
34829;DHT22;21042;47.620;12.188;2023-04-15T03:06:18;4.50;99.90
34829;DHT22;21042;47.620;12.188;2023-04-15T03:08:45;4.50;99.90
34829;DHT22;21042;47.620;12.188;2023-04-15T03:11:14;4.50;99.90
34829;DHT22;21042;47.620;12.188;2023-04-15T03:13:40;4.50;99.90
34829;DHT22;21042;47.620;12.188;2023-04-15T03:16:19;4.50;99.90
34829;DHT22;21042;47.620;12.188;2023-04-15T03:18:46;4.50;99.90
34829;DHT22;21042;47.620;12.188;2023-04-15T03:21:13;4.50;99.90
34829;DHT22;21042;47.620;12.188;2023-04-15T03:23:40;4.50;99.90
34829;DHT22;21042;47.620;12.188;2023-04-15T03:26:07;4.50;99.90
34829;DHT22;21042;47.620;12.188;2023-04-15T03:28:34;4.50;99.90
34829;DHT22;21042;47.620;12.188;2023-04-15T03:31:01;4.50;99.90
34829;DHT22;21042;47.620;12.188;2023-04-15T03:33:29;4.50;99.90
34829;DHT22;21042;47.620;12.188;2023-04-15T03:35:55;4.50;99.90
34829;DHT22;21042;47.620;12.188;2023-04-15T03:38:22;4.50;99.90
34829;DHT22;21042;47.620;12.188;2023-04-15T03:40:49;4.60;99.90
34829;DHT22;21042;47.620;12.188;2023-04-15T03:43:16;4.60;99.90
34829;DHT22;21042;47.620;12.188;2023-04-15T03:45:43;4.70;99.90
34829;DHT22;21042;47.620;12.188;2023-04-15T03:48:09;4.70;99.90
34829;DHT22;21042;47.620;12.188;2023-04-15T03:50:43;4.70;99.90
34829;DHT22;21042;47.620;12.188;2023-04-15T03:53:10;4.70;99.90
34829;DHT22;21042;47.620;12.188;2023-04-15T03:55:37;4.70;99.90
34829;DHT22;21042;47.620;12.188;2023-04-15T03:58:04;4.70;99.90
34829;DHT22;21042;47.620;12.188;2023-04-15T04:00:30;4.70;99.90
34829;DHT22;21042;47.620;12.188;2023-04-15T04:02:57;4.70;99.90
34829;DHT22;21042;47.620;12.188;2023-04-15T04:05:24;4.70;99.90
34829;DHT22;21042;47.620;12.188;2023-04-15T04:07:51;4.70;99.90
34829;DHT22;21042;47.620;12.188;2023-04-15T04:10:17;4.70;99.90
34829;DHT22;21042;47.620;12.188;2023-04-15T04:12:44;4.60;99.90
34829;DHT22;21042;47.620;12.188;2023-04-15T04:15:11;4.60;99.90
34829;DHT22;21042;47.620;12.188;2023-04-15T04:17:37;4.60;99.90
34829;DHT22;21042;47.620;12.188;2023-04-15T04:20:05;4.50;99.90
34829;DHT22;21042;47.620;12.188;2023-04-15T04:22:37;4.50;99.90
34829;DHT22;21042;47.620;12.188;2023-04-15T04:25:04;4.50;99.90
34829;DHT22;21042;47.620;12.188;2023-04-15T04:27:31;4.50;99.90
34829;DHT22;21042;47.620;12.188;2023-04-15T04:29:58;4.50;99.90
34829;DHT22;21042;47.620;12.188;2023-04-15T04:32:24;4.60;99.90
34829;DHT22;21042;47.620;12.188;2023-04-15T04:34:51;4.50;99.90
34829;DHT22;21042;47.620;12.188;2023-04-15T04:37:18;4.60;99.90
34829;DHT22;21042;47.620;12.188;2023-04-15T04:39:44;4.60;99.90
34829;DHT22;21042;47.620;12.188;2023-04-15T04:42:11;4.60;99.90
34829;DHT22;21042;47.620;12.188;2023-04-15T04:44:38;4.60;99.90
34829;DHT22;21042;47.620;12.188;2023-04-15T04:47:05;4.70;99.90
34829;DHT22;21042;47.620;12.188;2023-04-15T04:49:33;4.70;99.90
34829;DHT22;21042;47.620;12.188;2023-04-15T04:51:59;4.70;99.90
34829;DHT22;21042;47.620;12.188;2023-04-15T04:54:27;4.70;99.90
34829;DHT22;21042;47.620;12.188;2023-04-15T04:56:53;4.70;99.90
34829;DHT22;21042;47.620;12.188;2023-04-15T04:59:20;4.60;99.90
34829;DHT22;21042;47.620;12.188;2023-04-15T05:01:47;4.60;99.90
34829;DHT22;21042;47.620;12.188;2023-04-15T05:04:14;4.60;99.90
34829;DHT22;21042;47.620;12.188;2023-04-15T05:06:41;4.60;99.90
34829;DHT22;21042;47.620;12.188;2023-04-15T05:09:07;4.60;99.90
34829;DHT22;21042;47.620;12.188;2023-04-15T05:11:34;4.60;99.90
34829;DHT22;21042;47.620;12.188;2023-04-15T05:14:01;4.60;99.90
34829;DHT22;21042;47.620;12.188;2023-04-15T05:16:27;4.60;99.90
34829;DHT22;21042;47.620;12.188;2023-04-15T05:18:54;4.50;99.90
34829;DHT22;21042;47.620;12.188;2023-04-15T05:21:21;4.50;99.90
34829;DHT22;21042;47.620;12.188;2023-04-15T05:23:48;4.40;99.90
34829;DHT22;21042;47.620;12.188;2023-04-15T05:26:15;4.40;99.90
34829;DHT22;21042;47.620;12.188;2023-04-15T05:28:41;4.40;99.90
34829;DHT22;21042;47.620;12.188;2023-04-15T05:31:08;4.40;99.90
34829;DHT22;21042;47.620;12.188;2023-04-15T05:33:35;4.40;99.90
34829;DHT22;21042;47.620;12.188;2023-04-15T05:36:02;4.40;99.90
34829;DHT22;21042;47.620;12.188;2023-04-15T05:38:29;4.50;99.90
34829;DHT22;21042;47.620;12.188;2023-04-15T05:40:56;4.50;99.90
34829;DHT22;21042;47.620;12.188;2023-04-15T05:43:22;4.50;99.90
34829;DHT22;21042;47.620;12.188;2023-04-15T05:45:49;4.60;99.90
34829;DHT22;21042;47.620;12.188;2023-04-15T05:48:16;4.60;99.90
34829;DHT22;21042;47.620;12.188;2023-04-15T05:50:43;4.70;99.90
34829;DHT22;21042;47.620;12.188;2023-04-15T05:53:09;4.70;99.90
34829;DHT22;21042;47.620;12.188;2023-04-15T05:55:37;4.70;99.90
34829;DHT22;21042;47.620;12.188;2023-04-15T05:58:03;4.70;99.90
34829;DHT22;21042;47.620;12.188;2023-04-15T06:00:30;4.70;99.90
34829;DHT22;21042;47.620;12.188;2023-04-15T06:02:57;4.80;99.90
34829;DHT22;21042;47.620;12.188;2023-04-15T06:05:24;4.80;99.90
34829;DHT22;21042;47.620;12.188;2023-04-15T06:07:51;4.80;99.90
34829;DHT22;21042;47.620;12.188;2023-04-15T06:10:18;4.90;99.90
34829;DHT22;21042;47.620;12.188;2023-04-15T06:12:45;4.90;99.90
34829;DHT22;21042;47.620;12.188;2023-04-15T06:15:11;5.00;99.90
34829;DHT22;21042;47.620;12.188;2023-04-15T06:17:38;4.90;99.90
34829;DHT22;21042;47.620;12.188;2023-04-15T06:20:05;4.80;99.90
34829;DHT22;21042;47.620;12.188;2023-04-15T06:22:34;4.80;99.90
34829;DHT22;21042;47.620;12.188;2023-04-15T06:25:02;4.70;99.90
34829;DHT22;21042;47.620;12.188;2023-04-15T06:27:29;4.80;99.90
34829;DHT22;21042;47.620;12.188;2023-04-15T06:29:56;4.90;99.90
34829;DHT22;21042;47.620;12.188;2023-04-15T06:32:22;5.00;99.90
34829;DHT22;21042;47.620;12.188;2023-04-15T06:34:49;5.10;99.90
34829;DHT22;21042;47.620;12.188;2023-04-15T06:37:16;5.10;99.90
34829;DHT22;21042;47.620;12.188;2023-04-15T06:39:42;5.10;99.90
34829;DHT22;21042;47.620;12.188;2023-04-15T06:42:10;5.20;99.90
34829;DHT22;21042;47.620;12.188;2023-04-15T06:44:37;5.30;99.90
34829;DHT22;21042;47.620;12.188;2023-04-15T06:47:04;5.30;99.90
34829;DHT22;21042;47.620;12.188;2023-04-15T06:49:31;5.30;99.90
34829;DHT22;21042;47.620;12.188;2023-04-15T06:51:59;5.30;99.90
34829;DHT22;21042;47.620;12.188;2023-04-15T06:54:26;5.40;99.90
34829;DHT22;21042;47.620;12.188;2023-04-15T06:56:52;5.50;99.90
34829;DHT22;21042;47.620;12.188;2023-04-15T06:59:19;5.50;99.90
34829;DHT22;21042;47.620;12.188;2023-04-15T07:01:46;5.60;99.90
34829;DHT22;21042;47.620;12.188;2023-04-15T07:04:13;5.70;99.90
34829;DHT22;21042;47.620;12.188;2023-04-15T07:06:39;5.70;99.90
34829;DHT22;21042;47.620;12.188;2023-04-15T07:09:07;5.80;99.90
34829;DHT22;21042;47.620;12.188;2023-04-15T07:11:34;5.90;99.90
34829;DHT22;21042;47.620;12.188;2023-04-15T07:14:01;5.90;99.90
34829;DHT22;21042;47.620;12.188;2023-04-15T07:16:28;5.90;99.90
34829;DHT22;21042;47.620;12.188;2023-04-15T07:18:55;5.80;99.90
34829;DHT22;21042;47.620;12.188;2023-04-15T07:21:24;5.90;99.90
34829;DHT22;21042;47.620;12.188;2023-04-15T07:23:51;6.00;99.90
34829;DHT22;21042;47.620;12.188;2023-04-15T07:26:18;6.40;99.90
34829;DHT22;21042;47.620;12.188;2023-04-15T07:28:44;6.10;99.90
34829;DHT22;21042;47.620;12.188;2023-04-15T07:31:12;6.20;99.90
34829;DHT22;21042;47.620;12.188;2023-04-15T07:33:40;6.40;99.90
34829;DHT22;21042;47.620;12.188;2023-04-15T07:36:07;6.40;99.90
34829;DHT22;21042;47.620;12.188;2023-04-15T07:38:34;6.20;99.90
34829;DHT22;21042;47.620;12.188;2023-04-15T07:41:01;6.30;99.90
34829;DHT22;21042;47.620;12.188;2023-04-15T07:43:28;6.30;99.90
34829;DHT22;21042;47.620;12.188;2023-04-15T07:45:54;6.30;99.90
34829;DHT22;21042;47.620;12.188;2023-04-15T07:48:21;6.40;99.90
34829;DHT22;21042;47.620;12.188;2023-04-15T07:50:48;6.50;99.90
34829;DHT22;21042;47.620;12.188;2023-04-15T07:53:14;6.60;99.90
34829;DHT22;21042;47.620;12.188;2023-04-15T07:55:41;6.40;99.90
34829;DHT22;21042;47.620;12.188;2023-04-15T07:58:08;6.30;99.90
34829;DHT22;21042;47.620;12.188;2023-04-15T08:00:34;6.50;99.90
34829;DHT22;21042;47.620;12.188;2023-04-15T08:03:03;6.50;99.90
34829;DHT22;21042;47.620;12.188;2023-04-15T08:05:30;6.70;99.90
34829;DHT22;21042;47.620;12.188;2023-04-15T08:07:57;6.80;99.90
34829;DHT22;21042;47.620;12.188;2023-04-15T08:10:24;7.00;99.90
34829;DHT22;21042;47.620;12.188;2023-04-15T08:12:51;7.00;99.90
34829;DHT22;21042;47.620;12.188;2023-04-15T08:15:20;7.10;99.90
34829;DHT22;21042;47.620;12.188;2023-04-15T08:17:46;6.90;99.90
34829;DHT22;21042;47.620;12.188;2023-04-15T08:20:13;6.80;99.90
34829;DHT22;21042;47.620;12.188;2023-04-15T08:22:40;6.60;99.90
34829;DHT22;21042;47.620;12.188;2023-04-15T08:25:07;6.60;99.90
34829;DHT22;21042;47.620;12.188;2023-04-15T08:27:35;6.40;99.90
34829;DHT22;21042;47.620;12.188;2023-04-15T08:30:02;6.30;99.90
34829;DHT22;21042;47.620;12.188;2023-04-15T08:32:30;6.30;99.90
34829;DHT22;21042;47.620;12.188;2023-04-15T08:34:57;6.40;99.90
34829;DHT22;21042;47.620;12.188;2023-04-15T08:37:24;6.60;99.90
34829;DHT22;21042;47.620;12.188;2023-04-15T08:39:52;6.70;99.90
34829;DHT22;21042;47.620;12.188;2023-04-15T08:42:24;6.70;99.90
34829;DHT22;21042;47.620;12.188;2023-04-15T08:44:54;6.60;99.90
34829;DHT22;21042;47.620;12.188;2023-04-15T08:47:23;6.70;99.90
34829;DHT22;21042;47.620;12.188;2023-04-15T08:49:54;6.70;99.90
34829;DHT22;21042;47.620;12.188;2023-04-15T08:52:24;6.80;99.90
34829;DHT22;21042;47.620;12.188;2023-04-15T08:54:55;6.60;99.90
34829;DHT22;21042;47.620;12.188;2023-04-15T08:57:27;6.70;99.90
34829;DHT22;21042;47.620;12.188;2023-04-15T08:59:57;6.70;99.90
34829;DHT22;21042;47.620;12.188;2023-04-15T09:02:25;6.60;99.90
34829;DHT22;21042;47.620;12.188;2023-04-15T09:04:52;6.50;99.90
34829;DHT22;21042;47.620;12.188;2023-04-15T09:07:19;6.60;99.90
34829;DHT22;21042;47.620;12.188;2023-04-15T09:09:47;6.40;99.90
34829;DHT22;21042;47.620;12.188;2023-04-15T09:12:14;6.40;99.90
34829;DHT22;21042;47.620;12.188;2023-04-15T09:14:46;6.40;99.90
34829;DHT22;21042;47.620;12.188;2023-04-15T09:17:18;6.10;99.90
34829;DHT22;21042;47.620;12.188;2023-04-15T09:19:45;6.10;99.90
34829;DHT22;21042;47.620;12.188;2023-04-15T09:22:12;6.20;99.90
34829;DHT22;21042;47.620;12.188;2023-04-15T09:24:39;6.30;99.90
34829;DHT22;21042;47.620;12.188;2023-04-15T09:27:07;6.30;99.90
34829;DHT22;21042;47.620;12.188;2023-04-15T09:29:34;6.40;99.90
34829;DHT22;21042;47.620;12.188;2023-04-15T09:32:12;6.50;99.90
34829;DHT22;21042;47.620;12.188;2023-04-15T09:34:39;6.50;99.90
34829;DHT22;21042;47.620;12.188;2023-04-15T09:37:06;6.60;99.90
34829;DHT22;21042;47.620;12.188;2023-04-15T09:39:45;6.70;99.90
34829;DHT22;21042;47.620;12.188;2023-04-15T09:42:13;6.60;99.90
34829;DHT22;21042;47.620;12.188;2023-04-15T09:44:39;6.50;99.90
34829;DHT22;21042;47.620;12.188;2023-04-15T09:47:06;6.30;99.90
34829;DHT22;21042;47.620;12.188;2023-04-15T09:49:33;6.50;99.90
34829;DHT22;21042;47.620;12.188;2023-04-15T09:52:00;6.60;99.90
34829;DHT22;21042;47.620;12.188;2023-04-15T09:54:36;6.70;99.90
34829;DHT22;21042;47.620;12.188;2023-04-15T09:57:08;6.90;99.90
34829;DHT22;21042;47.620;12.188;2023-04-15T09:59:35;7.00;99.90
34829;DHT22;21042;47.620;12.188;2023-04-15T10:02:05;6.90;99.90
34829;DHT22;21042;47.620;12.188;2023-04-15T10:04:35;7.00;99.90
34829;DHT22;21042;47.620;12.188;2023-04-15T10:07:05;7.00;99.90
34829;DHT22;21042;47.620;12.188;2023-04-15T10:09:35;6.90;99.90
34829;DHT22;21042;47.620;12.188;2023-04-15T10:12:03;7.00;99.90
34829;DHT22;21042;47.620;12.188;2023-04-15T10:14:33;6.90;99.90
34829;DHT22;21042;47.620;12.188;2023-04-15T10:17:02;6.90;99.90
34829;DHT22;21042;47.620;12.188;2023-04-15T10:19:36;7.00;99.90
34829;DHT22;21042;47.620;12.188;2023-04-15T10:22:03;7.10;99.90
34829;DHT22;21042;47.620;12.188;2023-04-15T10:24:32;7.10;99.90
34829;DHT22;21042;47.620;12.188;2023-04-15T10:26:59;6.80;99.90
34829;DHT22;21042;47.620;12.188;2023-04-15T10:29:26;6.70;99.90
34829;DHT22;21042;47.620;12.188;2023-04-15T10:31:54;6.80;99.90
34829;DHT22;21042;47.620;12.188;2023-04-15T10:34:25;7.10;99.90
34829;DHT22;21042;47.620;12.188;2023-04-15T10:36:55;7.00;99.90
34829;DHT22;21042;47.620;12.188;2023-04-15T10:42:07;6.80;99.90
34829;DHT22;21042;47.620;12.188;2023-04-15T10:44:55;6.80;99.90
34829;DHT22;21042;47.620;12.188;2023-04-15T10:47:22;6.80;99.90
34829;DHT22;21042;47.620;12.188;2023-04-15T10:49:52;6.90;99.90
34829;DHT22;21042;47.620;12.188;2023-04-15T10:52:24;6.90;99.90
34829;DHT22;21042;47.620;12.188;2023-04-15T10:55:21;6.80;99.90
34829;DHT22;21042;47.620;12.188;2023-04-15T10:57:53;6.70;99.90
34829;DHT22;21042;47.620;12.188;2023-04-15T11:00:24;6.80;99.90
34829;DHT22;21042;47.620;12.188;2023-04-15T11:02:55;6.80;99.90
34829;DHT22;21042;47.620;12.188;2023-04-15T11:05:49;6.90;99.90
34829;DHT22;21042;47.620;12.188;2023-04-15T11:08:17;6.90;99.90
34829;DHT22;21042;47.620;12.188;2023-04-15T11:15:40;6.90;99.90
34829;DHT22;21042;47.620;12.188;2023-04-15T11:18:09;6.70;99.90
34829;DHT22;21042;47.620;12.188;2023-04-15T11:20:37;6.70;99.90
34829;DHT22;21042;47.620;12.188;2023-04-15T11:23:04;6.70;99.90
34829;DHT22;21042;47.620;12.188;2023-04-15T11:25:41;6.90;99.90
34829;DHT22;21042;47.620;12.188;2023-04-15T11:28:09;7.00;99.90
34829;DHT22;21042;47.620;12.188;2023-04-15T11:30:37;7.10;99.90
34829;DHT22;21042;47.620;12.188;2023-04-15T11:33:06;7.30;99.90
34829;DHT22;21042;47.620;12.188;2023-04-15T11:35:34;7.30;99.90
34829;DHT22;21042;47.620;12.188;2023-04-15T11:38:04;7.40;99.90
34829;DHT22;21042;47.620;12.188;2023-04-15T11:40:34;7.50;99.90
34829;DHT22;21042;47.620;12.188;2023-04-15T11:43:09;7.60;99.90
34829;DHT22;21042;47.620;12.188;2023-04-15T11:45:46;7.60;99.90
34829;DHT22;21042;47.620;12.188;2023-04-15T11:48:13;7.80;99.90
34829;DHT22;21042;47.620;12.188;2023-04-15T11:50:40;7.80;99.90
34829;DHT22;21042;47.620;12.188;2023-04-15T11:53:08;8.00;99.90
34829;DHT22;21042;47.620;12.188;2023-04-15T11:55:46;8.20;99.90
34829;DHT22;21042;47.620;12.188;2023-04-15T11:58:19;8.40;99.90
34829;DHT22;21042;47.620;12.188;2023-04-15T12:01:12;8.50;99.90
34829;DHT22;21042;47.620;12.188;2023-04-15T12:03:47;8.40;99.90
34829;DHT22;21042;47.620;12.188;2023-04-15T12:06:22;8.70;99.90
34829;DHT22;21042;47.620;12.188;2023-04-15T12:11:46;8.90;99.90
34829;DHT22;21042;47.620;12.188;2023-04-15T12:14:30;8.90;99.90
34829;DHT22;21042;47.620;12.188;2023-04-15T12:19:30;8.60;99.90
34829;DHT22;21042;47.620;12.188;2023-04-15T12:22:05;8.50;99.90
34829;DHT22;21042;47.620;12.188;2023-04-15T12:24:33;8.40;99.90
34829;DHT22;21042;47.620;12.188;2023-04-15T12:27:03;8.60;99.90
34829;DHT22;21042;47.620;12.188;2023-04-15T12:29:31;8.90;99.90
34829;DHT22;21042;47.620;12.188;2023-04-15T12:32:11;9.00;99.90
34829;DHT22;21042;47.620;12.188;2023-04-15T12:34:58;8.60;99.90
34829;DHT22;21042;47.620;12.188;2023-04-15T12:37:25;8.30;99.90
34829;DHT22;21042;47.620;12.188;2023-04-15T12:39:52;8.50;99.90
34829;DHT22;21042;47.620;12.188;2023-04-15T12:42:19;8.70;99.90
34829;DHT22;21042;47.620;12.188;2023-04-15T12:44:46;8.40;99.90
34829;DHT22;21042;47.620;12.188;2023-04-15T12:47:13;8.00;99.90
34829;DHT22;21042;47.620;12.188;2023-04-15T12:49:40;8.00;99.90
34829;DHT22;21042;47.620;12.188;2023-04-15T12:52:07;8.10;99.90
34829;DHT22;21042;47.620;12.188;2023-04-15T12:54:34;7.90;99.90
34829;DHT22;21042;47.620;12.188;2023-04-15T12:57:01;7.80;99.90
34829;DHT22;21042;47.620;12.188;2023-04-15T12:59:32;7.60;99.90
34829;DHT22;21042;47.620;12.188;2023-04-15T13:01:59;7.50;99.90
34829;DHT22;21042;47.620;12.188;2023-04-15T13:04:26;7.40;99.90
34829;DHT22;21042;47.620;12.188;2023-04-15T13:06:56;7.30;99.90
34829;DHT22;21042;47.620;12.188;2023-04-15T13:09:23;7.40;99.90
34829;DHT22;21042;47.620;12.188;2023-04-15T13:11:51;7.50;99.90
34829;DHT22;21042;47.620;12.188;2023-04-15T13:14:18;7.60;99.90
34829;DHT22;21042;47.620;12.188;2023-04-15T13:16:51;7.50;99.90
34829;DHT22;21042;47.620;12.188;2023-04-15T13:19:19;7.50;99.90
34829;DHT22;21042;47.620;12.188;2023-04-15T13:21:46;7.60;99.90
34829;DHT22;21042;47.620;12.188;2023-04-15T13:24:12;7.60;99.90
34829;DHT22;21042;47.620;12.188;2023-04-15T13:26:39;7.70;99.90
34829;DHT22;21042;47.620;12.188;2023-04-15T13:29:06;7.70;99.90
34829;DHT22;21042;47.620;12.188;2023-04-15T13:31:32;7.60;99.90
34829;DHT22;21042;47.620;12.188;2023-04-15T13:33:59;7.60;99.90
34829;DHT22;21042;47.620;12.188;2023-04-15T13:36:26;7.40;99.90
34829;DHT22;21042;47.620;12.188;2023-04-15T13:38:53;7.40;99.90
34829;DHT22;21042;47.620;12.188;2023-04-15T13:41:26;7.40;99.90
34829;DHT22;21042;47.620;12.188;2023-04-15T13:43:56;7.30;99.90
34829;DHT22;21042;47.620;12.188;2023-04-15T13:46:29;7.30;99.90
34829;DHT22;21042;47.620;12.188;2023-04-15T13:48:56;7.30;99.90
34829;DHT22;21042;47.620;12.188;2023-04-15T13:51:23;7.10;99.90
34829;DHT22;21042;47.620;12.188;2023-04-15T13:53:49;7.10;99.90
34829;DHT22;21042;47.620;12.188;2023-04-15T13:56:16;7.00;99.90
34829;DHT22;21042;47.620;12.188;2023-04-15T13:58:43;6.90;99.90
34829;DHT22;21042;47.620;12.188;2023-04-15T14:01:10;6.90;99.90
34829;DHT22;21042;47.620;12.188;2023-04-15T14:03:37;6.90;99.90
34829;DHT22;21042;47.620;12.188;2023-04-15T14:06:05;6.90;99.90
34829;DHT22;21042;47.620;12.188;2023-04-15T14:08:32;6.90;99.90
34829;DHT22;21042;47.620;12.188;2023-04-15T14:10:59;7.00;99.90
34829;DHT22;21042;47.620;12.188;2023-04-15T14:13:26;7.00;99.90
34829;DHT22;21042;47.620;12.188;2023-04-15T14:15:53;7.10;99.90
34829;DHT22;21042;47.620;12.188;2023-04-15T14:18:20;7.00;99.90
34829;DHT22;21042;47.620;12.188;2023-04-15T14:20:47;7.10;99.90
34829;DHT22;21042;47.620;12.188;2023-04-15T14:23:14;7.10;99.90
34829;DHT22;21042;47.620;12.188;2023-04-15T14:25:41;7.20;99.90
34829;DHT22;21042;47.620;12.188;2023-04-15T14:28:07;7.20;99.90
34829;DHT22;21042;47.620;12.188;2023-04-15T14:30:34;7.40;99.90
34829;DHT22;21042;47.620;12.188;2023-04-15T14:33:01;7.40;99.90
34829;DHT22;21042;47.620;12.188;2023-04-15T14:35:29;7.50;99.90
34829;DHT22;21042;47.620;12.188;2023-04-15T14:37:56;7.50;99.90
34829;DHT22;21042;47.620;12.188;2023-04-15T14:40:24;7.60;99.90
34829;DHT22;21042;47.620;12.188;2023-04-15T14:42:51;7.60;99.90
34829;DHT22;21042;47.620;12.188;2023-04-15T14:45:18;7.40;99.90
34829;DHT22;21042;47.620;12.188;2023-04-15T14:47:46;7.40;99.90
34829;DHT22;21042;47.620;12.188;2023-04-15T14:50:13;7.50;99.90
34829;DHT22;21042;47.620;12.188;2023-04-15T14:52:41;7.50;99.90
34829;DHT22;21042;47.620;12.188;2023-04-15T14:55:10;7.50;99.90
34829;DHT22;21042;47.620;12.188;2023-04-15T14:57:38;7.60;99.90
34829;DHT22;21042;47.620;12.188;2023-04-15T15:00:30;7.60;99.90
34829;DHT22;21042;47.620;12.188;2023-04-15T15:02:57;7.60;99.90
34829;DHT22;21042;47.620;12.188;2023-04-15T15:05:24;7.60;99.90
34829;DHT22;21042;47.620;12.188;2023-04-15T15:07:51;7.70;99.90
34829;DHT22;21042;47.620;12.188;2023-04-15T15:10:18;7.70;99.90
34829;DHT22;21042;47.620;12.188;2023-04-15T15:13:08;7.70;99.90
34829;DHT22;21042;47.620;12.188;2023-04-15T15:15:37;7.70;99.90
34829;DHT22;21042;47.620;12.188;2023-04-15T15:18:04;7.70;99.90
34829;DHT22;21042;47.620;12.188;2023-04-15T15:20:31;7.60;99.90
34829;DHT22;21042;47.620;12.188;2023-04-15T15:22:58;7.60;99.90
34829;DHT22;21042;47.620;12.188;2023-04-15T15:25:25;7.60;99.90
34829;DHT22;21042;47.620;12.188;2023-04-15T15:27:52;7.60;99.90
34829;DHT22;21042;47.620;12.188;2023-04-15T15:30:19;7.60;99.90
34829;DHT22;21042;47.620;12.188;2023-04-15T15:32:46;7.60;99.90
34829;DHT22;21042;47.620;12.188;2023-04-15T15:35:12;7.60;99.90
34829;DHT22;21042;47.620;12.188;2023-04-15T15:37:40;7.70;99.90
34829;DHT22;21042;47.620;12.188;2023-04-15T15:40:07;7.70;99.90
34829;DHT22;21042;47.620;12.188;2023-04-15T15:42:34;7.60;99.90
34829;DHT22;21042;47.620;12.188;2023-04-15T15:45:03;7.70;99.90
34829;DHT22;21042;47.620;12.188;2023-04-15T15:47:30;7.70;99.90
34829;DHT22;21042;47.620;12.188;2023-04-15T15:49:56;7.70;99.90
34829;DHT22;21042;47.620;12.188;2023-04-15T15:52:23;7.60;99.90